Time;durP1;ratioP1;P1;durP2;ratioP2;P2;SDS_P1;SDS_P2;PMS_P1;PMS_P2;Temp;Humidity;BMP_temperature;BMP_pressure;BME280_temperature;BME280_humidity;BME280_pressure;Samples;Min_cycle;Max_cycle;Signal;HPM_P1;HPM_P2
2022/04/15 00:00:13;;;;;;;19.83;9.40;;;9.30;85.30;;;;;;4918245;29;20051;-71
2022/04/15 00:02:41;;;;;;;18.95;10.07;;;9.30;85.20;;;;;;4917860;29;20058;-71
2022/04/15 00:07:55;;;;;;;28.63;11.35;;;9.40;85.20;;;;;;4934785;28;20044;-71
2022/04/15 00:10:23;;;;;;;29.25;10.68;;;9.50;85.30;;;;;;4952560;28;20054;-72
2022/04/15 00:12:57;;;;;;;31.45;11.40;;;9.50;85.30;;;;;;4954876;29;20048;-71
2022/04/15 00:15:26;;;;;;;34.33;11.15;;;9.50;85.40;;;;;;4921125;29;20070;-71
2022/04/15 00:17:54;;;;;;;26.02;11.63;;;9.50;85.40;;;;;;4955070;28;20051;-71
2022/04/15 00:20:22;;;;;;;21.63;10.60;;;9.50;85.50;;;;;;4957166;28;20062;-72
2022/04/15 00:22:52;;;;;;;24.10;10.82;;;9.50;85.50;;;;;;4959047;28;20047;-72
2022/04/15 00:25:20;;;;;;;25.83;11.25;;;9.60;85.50;;;;;;4922464;29;20062;-71
2022/04/15 00:27:53;;;;;;;19.48;10.00;;;9.50;85.60;;;;;;4924275;29;20531;-71
2022/04/15 00:30:21;;;;;;;17.42;10.10;;;9.50;85.60;;;;;;4949958;29;20051;-71
2022/04/15 00:32:49;;;;;;;22.88;10.40;;;9.40;85.60;;;;;;4936360;29;20060;-71
2022/04/15 00:35:17;;;;;;;24.70;10.98;;;9.30;85.60;;;;;;4932237;29;20039;-71
2022/04/15 00:37:46;;;;;;;15.25;8.60;;;9.30;85.70;;;;;;4943282;29;20062;-72
2022/04/15 00:40:14;;;;;;;22.88;9.02;;;9.20;85.80;;;;;;4955706;29;20054;-71
2022/04/15 00:42:42;;;;;;;18.83;9.73;;;9.00;85.90;;;;;;4945369;29;20421;-74
2022/04/15 00:45:10;;;;;;;25.63;11.23;;;8.90;86.00;;;;;;4955749;28;20043;-73
2022/04/15 00:47:47;;;;;;;22.90;11.48;;;8.90;86.20;;;;;;4951825;29;20050;-72
2022/04/15 00:50:17;;;;;;;23.92;11.55;;;8.80;86.30;;;;;;4948168;28;20047;-73
2022/04/15 00:52:47;;;;;;;20.70;9.95;;;8.80;86.40;;;;;;4955554;29;20401;-73
2022/04/15 00:55:17;;;;;;;19.60;9.80;;;8.70;86.50;;;;;;4937776;29;20509;-73
2022/04/15 00:57:51;;;;;;;19.63;10.38;;;8.60;86.50;;;;;;4955180;28;20054;-73
2022/04/15 01:00:20;;;;;;;26.70;10.70;;;8.50;86.60;;;;;;4955500;29;20051;-73
2022/04/15 01:02:48;;;;;;;19.23;9.23;;;8.50;86.70;;;;;;4937835;29;20051;-73
2022/04/15 01:05:16;;;;;;;18.13;10.35;;;8.40;86.80;;;;;;4950341;29;20043;-73
2022/04/15 01:07:49;;;;;;;17.35;9.85;;;8.30;86.90;;;;;;4956499;29;20047;-72
2022/04/15 01:10:19;;;;;;;20.58;10.63;;;8.30;87.00;;;;;;4953150;28;20054;-73
2022/04/15 01:12:51;;;;;;;24.85;11.07;;;8.30;87.10;;;;;;4921083;29;20066;-73
2022/04/15 01:15:40;;;;;;;22.17;10.80;;;8.30;87.10;;;;;;4952930;28;20504;-73
2022/04/15 01:18:08;;;;;;;18.73;10.23;;;8.30;87.20;;;;;;4949295;28;20501;-73
2022/04/15 01:20:37;;;;;;;25.20;11.60;;;8.30;87.20;;;;;;4927687;28;20489;-74
2022/04/15 01:23:08;;;;;;;24.00;11.10;;;8.20;87.30;;;;;;4942207;29;20051;-73
2022/04/15 01:25:37;;;;;;;19.00;9.73;;;8.20;87.30;;;;;;4953584;28;20051;-71
2022/04/15 01:28:06;;;;;;;18.15;9.25;;;8.20;87.40;;;;;;4952680;28;20062;-72
2022/04/15 01:30:34;;;;;;;15.65;9.90;;;8.10;87.40;;;;;;4933962;29;20395;-72
2022/04/15 01:33:03;;;;;;;22.27;11.10;;;8.00;87.40;;;;;;4939924;29;20054;-72
2022/04/15 01:35:33;;;;;;;26.35;12.23;;;7.90;87.50;;;;;;4925290;29;20054;-72
2022/04/15 01:38:04;;;;;;;24.63;12.18;;;7.80;87.60;;;;;;4926790;29;20043;-72
2022/04/15 01:40:32;;;;;;;24.20;11.25;;;7.80;87.60;;;;;;4934466;29;20482;-73
2022/04/15 01:43:01;;;;;;;23.15;11.75;;;7.70;87.80;;;;;;4936845;29;20074;-72
2022/04/15 01:45:30;;;;;;;24.13;12.27;;;7.70;87.80;;;;;;4928472;29;20047;-72
2022/04/15 01:47:58;;;;;;;22.58;11.80;;;7.50;87.90;;;;;;4941292;28;20054;-72
2022/04/15 01:50:28;;;;;;;22.15;11.80;;;7.50;88.00;;;;;;4941252;29;20051;-73
2022/04/15 01:52:58;;;;;;;23.50;11.77;;;7.40;88.00;;;;;;4935629;29;20058;-72
2022/04/15 01:55:29;;;;;;;27.65;12.00;;;7.30;88.10;;;;;;4948458;29;20059;-72
2022/04/15 01:58:01;;;;;;;22.15;11.88;;;7.30;88.10;;;;;;4945236;29;20385;-72
2022/04/15 02:00:33;;;;;;;18.40;10.35;;;7.30;88.20;;;;;;4935263;29;20050;-72
2022/04/15 02:03:03;;;;;;;18.48;9.98;;;7.20;88.30;;;;;;4940746;29;20397;-72
2022/04/15 02:05:32;;;;;;;20.05;11.70;;;7.10;88.40;;;;;;4948302;29;20055;-72
2022/04/15 02:08:00;;;;;;;21.75;11.75;;;7.10;88.40;;;;;;4937491;29;20043;-72
2022/04/15 02:10:28;;;;;;;17.38;11.05;;;7.00;88.40;;;;;;4950851;28;20055;-72
2022/04/15 02:12:56;;;;;;;26.00;13.73;;;7.00;88.50;;;;;;4933331;29;20134;-72
2022/04/15 02:15:25;;;;;;;22.02;12.02;;;7.00;88.50;;;;;;4945768;29;20051;-72
2022/04/15 02:17:54;;;;;;;29.83;13.50;;;7.00;88.50;;;;;;4944188;29;20062;-72
2022/04/15 02:20:22;;;;;;;33.70;14.30;;;7.00;88.50;;;;;;4946339;29;20500;-72
2022/04/15 02:22:52;;;;;;;26.80;11.48;;;6.90;88.50;;;;;;4951900;28;20050;-72
2022/04/15 02:25:20;;;;;;;39.92;15.52;;;6.90;88.50;;;;;;4934553;29;20058;-72
2022/04/15 02:27:47;;;;;;;32.00;14.40;;;6.80;88.60;;;;;;4931781;29;20525;-72
2022/04/15 02:30:15;;;;;;;27.48;12.88;;;6.80;88.60;;;;;;4923741;29;20052;-72
2022/04/15 02:32:43;;;;;;;29.00;13.43;;;6.80;88.60;;;;;;4908450;29;20048;-72
2022/04/15 02:35:10;;;;;;;39.78;16.67;;;6.70;88.70;;;;;;4930342;29;20047;-72
2022/04/15 02:37:40;;;;;;;29.23;15.73;;;6.70;88.90;;;;;;4948823;29;20054;-72
2022/04/15 02:40:08;;;;;;;32.42;16.73;;;6.70;88.90;;;;;;4927809;29;20056;-72
2022/04/15 02:42:36;;;;;;;43.25;15.90;;;6.70;89.00;;;;;;4938966;29;20043;-72
2022/04/15 02:45:04;;;;;;;42.33;17.75;;;6.70;89.00;;;;;;4919467;29;20071;-72
2022/04/15 02:47:32;;;;;;;41.10;16.98;;;6.70;88.90;;;;;;4936104;28;20059;-73
2022/04/15 02:50:00;;;;;;;35.15;17.65;;;6.70;88.90;;;;;;4959049;28;20046;-72
2022/04/15 02:52:28;;;;;;;43.53;16.88;;;6.70;88.90;;;;;;4937606;28;20052;-72
2022/04/15 02:54:55;;;;;;;32.72;16.23;;;6.70;88.90;;;;;;4944423;29;20051;-72
2022/04/15 02:57:23;;;;;;;32.80;14.57;;;6.70;88.90;;;;;;4950627;28;20050;-71
2022/04/15 02:59:52;;;;;;;34.47;16.30;;;6.60;88.90;;;;;;4931454;29;20059;-71
2022/04/15 03:02:35;;;;;;;30.58;16.05;;;6.50;89.00;;;;;;4921732;29;20051;-72
2022/04/15 03:05:04;;;;;;;33.08;15.15;;;6.40;89.10;;;;;;4903737;29;20044;-71
2022/04/15 03:07:32;;;;;;;30.25;14.80;;;6.40;89.10;;;;;;4947434;28;20051;-71
2022/04/15 03:09:59;;;;;;;28.63;13.82;;;6.30;89.20;;;;;;4928653;29;20074;-71
2022/04/15 03:12:27;;;;;;;29.42;14.65;;;6.30;89.30;;;;;;4958607;28;20051;-71
2022/04/15 03:14:54;;;;;;;25.02;12.65;;;6.30;89.30;;;;;;4935210;29;20074;-71
2022/04/15 03:17:22;;;;;;;33.13;15.40;;;6.20;89.40;;;;;;4946718;28;20048;-71
2022/04/15 03:19:49;;;;;;;25.48;14.75;;;6.20;89.50;;;;;;4928697;29;20398;-71
2022/04/15 03:22:17;;;;;;;25.33;13.85;;;6.20;89.60;;;;;;4939257;29;20055;-71
2022/04/15 03:24:45;;;;;;;26.50;14.02;;;6.10;89.50;;;;;;4947133;29;20055;-71
2022/04/15 03:27:13;;;;;;;38.65;16.98;;;6.00;89.40;;;;;;4930968;29;20054;-71
2022/04/15 03:29:40;;;;;;;29.02;14.93;;;6.00;89.60;;;;;;4923200;29;20047;-71
2022/04/15 03:32:08;;;;;;;24.00;13.27;;;6.00;89.70;;;;;;4939165;28;20050;-71
2022/04/15 03:34:36;;;;;;;27.25;14.13;;;5.90;89.60;;;;;;4934088;29;20062;-71
2022/04/15 03:37:04;;;;;;;30.30;16.60;;;5.90;89.60;;;;;;4922128;29;20511;-71
2022/04/15 03:39:32;;;;;;;28.38;16.48;;;5.90;89.70;;;;;;4942582;28;20043;-71
2022/04/15 03:42:01;;;;;;;28.30;14.48;;;5.90;89.80;;;;;;4920701;29;20063;-71
2022/04/15 03:44:28;;;;;;;27.33;14.77;;;5.80;89.60;;;;;;4925643;29;20058;-71
2022/04/15 03:46:56;;;;;;;31.75;17.42;;;5.80;89.60;;;;;;4935080;29;20525;-71
2022/04/15 03:49:24;;;;;;;36.55;18.60;;;5.80;89.70;;;;;;4946972;29;20074;-71
2022/04/15 03:51:51;;;;;;;36.05;17.50;;;5.70;89.80;;;;;;4938508;29;20432;-71
2022/04/15 03:54:19;;;;;;;25.50;15.25;;;5.70;89.90;;;;;;4947826;29;20068;-70
2022/04/15 03:56:47;;;;;;;28.30;14.07;;;5.70;89.80;;;;;;4933904;29;20374;-71
2022/04/15 03:59:14;;;;;;;28.60;13.57;;;5.60;89.70;;;;;;4927851;29;20508;-71
2022/04/15 04:01:43;;;;;;;38.08;17.75;;;5.60;89.70;;;;;;4943604;29;20066;-71
2022/04/15 04:04:16;;;;;;;44.38;21.70;;;5.60;89.80;;;;;;4923629;29;20047;-72
2022/04/15 04:06:47;;;;;;;36.40;19.17;;;5.60;90.00;;;;;;4919139;29;20051;-71
2022/04/15 04:09:14;;;;;;;34.33;18.80;;;5.60;90.00;;;;;;4945641;29;20929;-71
2022/04/15 04:11:42;;;;;;;37.15;19.38;;;5.60;90.00;;;;;;4951551;28;20039;-71
2022/04/15 04:14:10;;;;;;;48.17;22.92;;;5.60;90.00;;;;;;4936189;29;20521;-71
2022/04/15 04:16:42;;;;;;;53.13;23.27;;;5.60;90.00;;;;;;4946279;28;20043;-71
2022/04/15 04:19:09;;;;;;;49.03;21.13;;;5.50;90.00;;;;;;4955465;28;20054;-71
2022/04/15 04:21:37;;;;;;;72.45;24.15;;;5.60;90.00;;;;;;4928985;29;20453;-71
2022/04/15 04:24:05;;;;;;;50.60;21.52;;;5.50;90.00;;;;;;4949239;28;20405;-72
2022/04/15 04:26:32;;;;;;;55.45;22.45;;;5.50;90.00;;;;;;4940707;29;20056;-72
2022/04/15 04:29:00;;;;;;;48.92;23.10;;;5.50;90.10;;;;;;4928576;29;20044;-72
2022/04/15 04:31:27;;;;;;;46.42;21.60;;;5.50;90.20;;;;;;4941956;28;20059;-71
2022/04/15 04:33:55;;;;;;;50.75;22.02;;;5.50;90.30;;;;;;4948383;28;20036;-72
2022/04/15 04:36:23;;;;;;;50.13;22.52;;;5.50;90.20;;;;;;4945272;29;20051;-71
2022/04/15 04:38:50;;;;;;;46.70;21.42;;;5.50;90.10;;;;;;4947059;29;20493;-71
2022/04/15 04:41:18;;;;;;;69.20;25.55;;;5.50;90.10;;;;;;4926790;29;20062;-71
2022/04/15 04:43:46;;;;;;;66.80;22.80;;;5.40;90.10;;;;;;4938532;29;20050;-71
2022/04/15 04:46:14;;;;;;;53.45;24.20;;;5.40;90.20;;;;;;4955437;28;20058;-72
2022/04/15 04:48:41;;;;;;;46.88;21.35;;;5.40;90.20;;;;;;4944873;28;20497;-72
2022/04/15 04:51:09;;;;;;;51.55;21.50;;;5.40;90.20;;;;;;4939959;29;20048;-71
2022/04/15 04:53:36;;;;;;;40.72;19.80;;;5.40;90.20;;;;;;4936337;29;20052;-72
2022/04/15 04:56:04;;;;;;;46.28;19.55;;;5.30;90.20;;;;;;4940000;29;20050;-72
2022/04/15 04:58:32;;;;;;;46.28;23.08;;;5.30;90.20;;;;;;4951409;28;20586;-72
2022/04/15 05:01:01;;;;;;;38.83;17.58;;;5.30;90.20;;;;;;4919801;29;20040;-72
2022/04/15 05:03:34;;;;;;;;;;;5.20;90.30;;;;;;4925179;29;20039;-71
2022/04/15 05:06:07;;;;;;;40.60;17.58;;;5.20;90.50;;;;;;4934181;29;19934;-71
2022/04/15 05:08:36;;;;;;;31.65;17.55;;;5.20;90.70;;;;;;4918540;29;20405;-70
2022/04/15 05:11:03;;;;;;;34.72;18.02;;;5.30;90.90;;;;;;4947980;28;20051;-71
2022/04/15 05:13:31;;;;;;;37.78;19.17;;;5.30;91.00;;;;;;4927691;29;20047;-71
2022/04/15 05:15:59;;;;;;;26.83;16.65;;;5.40;91.00;;;;;;4922102;28;20051;-71
2022/04/15 05:18:26;;;;;;;32.40;16.67;;;5.50;91.00;;;;;;4928205;29;20059;-71
2022/04/15 05:20:54;;;;;;;32.05;17.77;;;5.70;90.90;;;;;;4941782;29;20043;-71
2022/04/15 05:23:22;;;;;;;33.30;17.63;;;5.80;90.80;;;;;;4937257;29;20051;-71
2022/04/15 05:25:49;;;;;;;26.80;16.70;;;5.80;90.70;;;;;;4939165;29;20417;-71
2022/04/15 05:28:18;;;;;;;30.98;15.38;;;6.00;90.60;;;;;;4944932;28;20039;-72
2022/04/15 05:30:45;;;;;;;32.42;16.40;;;6.10;90.50;;;;;;4926907;28;20043;-71
2022/04/15 05:33:13;;;;;;;28.17;16.13;;;6.20;90.40;;;;;;4933697;29;20052;-71
2022/04/15 05:35:40;;;;;;;34.25;16.45;;;6.30;90.30;;;;;;4951468;28;20044;-71
2022/04/15 05:38:08;;;;;;;25.63;15.18;;;6.40;90.20;;;;;;4936591;29;20051;-70
2022/04/15 05:40:35;;;;;;;27.83;15.77;;;6.50;90.10;;;;;;4950127;29;20040;-71
2022/04/15 05:43:03;;;;;;;32.83;15.07;;;6.60;90.00;;;;;;4948878;28;20397;-71
2022/04/15 05:45:31;;;;;;;33.63;16.23;;;6.70;90.00;;;;;;4953540;28;20039;-71
2022/04/15 05:47:59;;;;;;;29.55;15.73;;;6.70;89.90;;;;;;4947562;29;20055;-71
2022/04/15 05:50:26;;;;;;;26.85;14.75;;;6.80;89.80;;;;;;4934223;29;20040;-70
2022/04/15 05:52:54;;;;;;;25.73;14.10;;;6.80;89.80;;;;;;4918580;29;20054;-70
2022/04/15 05:55:22;;;;;;;23.17;14.50;;;7.00;89.70;;;;;;4942222;28;20047;-71
2022/04/15 05:57:49;;;;;;;27.40;15.07;;;7.00;89.60;;;;;;4965449;28;20062;-72
2022/04/15 06:00:18;;;;;;;28.00;14.02;;;7.10;89.50;;;;;;4952200;28;20047;-72
2022/04/15 06:02:46;;;;;;;24.63;13.98;;;7.20;89.50;;;;;;4945499;28;20061;-72
2022/04/15 06:05:18;;;;;;;23.45;13.68;;;7.30;89.40;;;;;;4927347;28;20046;-72
2022/04/15 06:07:45;;;;;;;25.17;14.85;;;7.30;89.30;;;;;;4951077;28;20055;-72
2022/04/15 06:10:13;;;;;;;25.13;13.60;;;7.40;89.20;;;;;;4937979;28;20486;-72
2022/04/15 06:15:32;;;;;;;24.15;14.50;;;7.50;89.20;;;;;;4952268;29;20031;-72
2022/04/15 06:18:01;;;;;;;23.42;14.35;;;7.70;89.10;;;;;;4935199;29;20058;-72
2022/04/15 06:20:30;;;;;;;25.67;14.27;;;7.70;89.00;;;;;;4921525;29;20056;-72
2022/04/15 06:22:58;;;;;;;29.50;15.30;;;7.80;88.90;;;;;;4950751;29;20047;-72
2022/04/15 06:25:26;;;;;;;28.90;15.20;;;7.90;88.80;;;;;;4954316;28;20046;-72
2022/04/15 06:27:54;;;;;;;29.10;15.00;;;8.00;88.70;;;;;;4954313;29;20067;-72
2022/04/15 06:30:22;;;;;;;23.27;15.07;;;8.00;88.70;;;;;;4947876;29;20043;-72
2022/04/15 06:32:49;;;;;;;31.98;17.02;;;8.20;88.70;;;;;;4937226;29;20062;-72
2022/04/15 06:35:17;;;;;;;29.40;16.85;;;8.20;88.60;;;;;;4943612;28;20047;-72
2022/04/15 06:37:45;;;;;;;30.00;16.98;;;8.30;88.50;;;;;;4939121;29;20066;-72
2022/04/15 06:40:12;;;;;;;28.80;16.70;;;8.30;88.40;;;;;;4938478;28;20051;-72
2022/04/15 06:42:40;;;;;;;28.90;17.55;;;8.40;88.40;;;;;;4922853;29;20044;-72
2022/04/15 06:45:09;;;;;;;28.23;17.45;;;8.50;88.30;;;;;;4949012;29;20058;-72
2022/04/15 06:47:37;;;;;;;23.88;16.70;;;8.60;88.20;;;;;;4946740;29;20047;-71
2022/04/15 06:50:05;;;;;;;30.10;17.25;;;8.60;88.10;;;;;;4946935;29;20047;-71
2022/04/15 06:52:33;;;;;;;33.22;18.17;;;8.60;88.00;;;;;;4941518;29;20064;-70
2022/04/15 06:55:01;;;;;;;27.90;17.88;;;8.50;88.00;;;;;;4935586;29;20056;-72
2022/04/15 06:57:31;;;;;;;26.75;17.83;;;8.50;88.10;;;;;;4937634;28;20059;-71
2022/04/15 06:59:59;;;;;;;28.88;17.83;;;8.40;88.10;;;;;;4936876;29;20047;-70
2022/04/15 07:02:26;;;;;;;28.27;18.10;;;8.40;88.10;;;;;;4932364;29;20047;-70
2022/04/15 07:04:54;;;;;;;31.13;19.98;;;8.30;88.20;;;;;;4921367;29;20055;-74
2022/04/15 07:07:22;;;;;;;30.73;18.88;;;8.30;88.20;;;;;;4939939;29;20043;-72
2022/04/15 07:09:50;;;;;;;28.02;18.33;;;8.40;88.20;;;;;;4942997;29;20043;-71
2022/04/15 07:12:18;;;;;;;29.88;18.38;;;8.40;88.20;;;;;;4946424;29;20055;-71
2022/04/15 07:14:45;;;;;;;28.50;18.40;;;8.40;88.20;;;;;;4954338;29;20047;-70
2022/04/15 07:17:13;;;;;;;29.90;19.08;;;8.40;88.20;;;;;;4947902;29;20044;-71
2022/04/15 07:19:42;;;;;;;30.52;20.48;;;8.50;88.30;;;;;;4948517;28;20488;-71
2022/04/15 07:22:10;;;;;;;32.50;19.75;;;8.60;88.30;;;;;;4953688;28;20456;-70
2022/04/15 07:24:38;;;;;;;33.85;21.05;;;8.70;88.30;;;;;;4952329;28;20059;-70
2022/04/15 07:27:06;;;;;;;35.38;20.83;;;8.90;88.30;;;;;;4935261;29;20050;-71
2022/04/15 07:29:33;;;;;;;28.38;19.75;;;9.30;88.30;;;;;;4955031;28;20043;-70
2022/04/15 07:32:01;;;;;;;33.47;19.38;;;9.50;88.30;;;;;;4952327;28;20043;-70
2022/04/15 07:34:29;;;;;;;28.42;18.02;;;9.90;88.20;;;;;;4953385;29;20050;-71
2022/04/15 07:36:59;;;;;;;29.83;16.35;;;10.30;87.90;;;;;;4949546;28;20051;-71
2022/04/15 07:39:26;;;;;;;20.92;15.18;;;10.70;87.50;;;;;;4951463;28;20039;-71
2022/04/15 07:41:54;;;;;;;24.20;14.48;;;10.90;87.10;;;;;;4952280;28;20069;-71
2022/04/15 07:44:22;;;;;;;23.70;14.23;;;11.20;86.50;;;;;;4951123;28;20050;-71
2022/04/15 07:46:49;;;;;;;25.05;13.57;;;11.30;86.20;;;;;;4936077;29;20047;-71
2022/04/15 07:49:17;;;;;;;20.08;13.80;;;11.40;85.80;;;;;;4955118;29;20048;-71
2022/04/15 07:51:45;;;;;;;21.23;13.70;;;11.50;85.50;;;;;;4933304;29;20059;-71
2022/04/15 07:54:13;;;;;;;35.33;15.95;;;11.50;85.30;;;;;;4953860;28;20047;-70
2022/04/15 07:56:40;;;;;;;51.35;15.80;;;11.60;85.10;;;;;;4921485;29;20054;-71
2022/04/15 07:59:09;;;;;;;69.45;18.35;;;11.60;85.00;;;;;;4952940;29;20035;-71
2022/04/15 08:01:38;;;;;;;18.77;13.20;;;11.70;84.90;;;;;;4947779;28;20066;-71
2022/04/15 08:04:06;;;;;;;20.48;12.48;;;11.70;84.70;;;;;;4953956;28;20061;-72
2022/04/15 08:06:34;;;;;;;23.08;13.65;;;11.70;84.50;;;;;;4948846;28;20055;-71
2022/04/15 08:09:03;;;;;;;21.00;13.30;;;11.80;84.40;;;;;;4953245;29;20414;-71
2022/04/15 08:11:31;;;;;;;19.83;12.90;;;11.80;84.30;;;;;;4948045;29;20051;-71
2022/04/15 08:13:59;;;;;;;17.98;12.48;;;11.90;84.10;;;;;;4952599;28;20043;-72
2022/04/15 08:16:28;;;;;;;20.58;11.95;;;12.00;84.00;;;;;;4949804;29;20477;-71
2022/04/15 08:18:56;;;;;;;20.55;12.32;;;12.10;83.80;;;;;;4934559;29;20051;-71
2022/04/15 08:21:24;;;;;;;20.52;12.77;;;12.20;83.60;;;;;;4930352;28;20055;-71
2022/04/15 08:23:52;;;;;;;21.50;11.75;;;12.20;83.60;;;;;;4949101;28;20047;-71
2022/04/15 08:26:19;;;;;;;22.48;12.88;;;12.30;83.50;;;;;;4952942;29;20091;-71
2022/04/15 08:28:47;;;;;;;22.38;12.45;;;12.50;83.20;;;;;;4949734;29;20047;-71
2022/04/15 08:31:15;;;;;;;18.60;11.77;;;12.60;83.10;;;;;;4951933;29;20050;-71
2022/04/15 08:33:43;;;;;;;19.00;11.88;;;12.80;82.90;;;;;;4947164;29;20039;-71
2022/04/15 08:36:11;;;;;;;16.15;11.82;;;12.90;82.60;;;;;;4950488;28;20809;-71
2022/04/15 08:38:38;;;;;;;18.70;11.63;;;13.00;82.30;;;;;;4949012;29;20486;-72
2022/04/15 08:41:13;;;;;;;18.10;11.48;;;13.20;82.00;;;;;;4944518;29;20066;-72
2022/04/15 08:43:42;;;;;;;19.10;11.20;;;13.30;81.90;;;;;;4950427;29;20065;-73
2022/04/15 08:46:12;;;;;;;19.10;11.57;;;13.40;81.70;;;;;;4933622;29;20062;-71
2022/04/15 08:48:40;;;;;;;19.73;11.25;;;13.50;81.20;;;;;;4949686;29;20039;-71
2022/04/15 08:51:08;;;;;;;16.98;10.65;;;13.70;81.20;;;;;;4950683;29;20051;-71
2022/04/15 08:53:37;;;;;;;15.20;10.18;;;13.80;80.90;;;;;;4914485;29;20047;-72
2022/04/15 08:56:05;;;;;;;14.30;10.00;;;14.00;80.80;;;;;;4934983;29;20520;-71
2022/04/15 08:58:33;;;;;;;16.35;10.15;;;14.10;80.60;;;;;;4950733;29;20058;-71
2022/04/15 09:01:01;;;;;;;16.20;9.93;;;14.30;80.20;;;;;;4946898;28;20043;-71
2022/04/15 09:03:29;;;;;;;15.23;10.10;;;14.40;79.80;;;;;;4952683;28;20515;-71
2022/04/15 09:05:56;;;;;;;17.15;9.73;;;14.60;79.40;;;;;;4951024;29;20047;-72
2022/04/15 09:08:25;;;;;;;16.33;9.60;;;14.60;79.00;;;;;;4950967;29;20058;-71
2022/04/15 09:10:59;;;;;;;15.20;9.75;;;14.60;78.90;;;;;;4950549;28;20047;-72
2022/04/15 09:13:34;;;;;;;17.70;9.18;;;14.80;78.80;;;;;;4951516;28;20058;-71
2022/04/15 09:16:02;;;;;;;19.48;9.15;;;14.80;78.20;;;;;;4953300;29;20047;-71
2022/04/15 09:18:32;;;;;;;10.77;8.27;;;14.80;77.90;;;;;;4947124;28;20055;-72
2022/04/15 09:21:20;;;;;;;12.93;8.82;;;14.80;77.80;;;;;;4948794;29;20070;-71
2022/04/15 09:23:53;;;;;;;14.25;8.50;;;14.70;77.60;;;;;;4934921;29;20043;-71
2022/04/15 09:26:22;;;;;;;13.07;8.60;;;14.70;77.70;;;;;;4934991;29;20073;-71
2022/04/15 09:28:53;;;;;;;13.63;8.25;;;14.70;77.90;;;;;;4947873;29;20047;-71
2022/04/15 09:31:23;;;;;;;13.93;8.27;;;14.70;77.80;;;;;;4934273;29;20074;-71
2022/04/15 09:34:01;;;;;;;10.68;7.50;;;14.60;77.70;;;;;;4950291;28;20055;-71
2022/04/15 09:36:34;;;;;;;10.50;6.47;;;14.60;77.80;;;;;;4934666;28;20054;-71
2022/04/15 09:39:11;;;;;;;12.73;6.10;;;14.80;77.50;;;;;;4949546;29;20040;-71
2022/04/15 09:41:40;;;;;;;9.25;5.47;;;14.90;76.50;;;;;;4955884;28;20043;-71
2022/04/15 09:44:12;;;;;;;8.50;5.28;;;15.00;76.40;;;;;;4949054;29;20047;-71
2022/04/15 09:46:44;;;;;;;8.90;5.70;;;15.20;75.30;;;;;;4936312;29;20070;-71
2022/04/15 09:49:13;;;;;;;10.05;5.03;;;15.30;75.10;;;;;;4952457;29;20068;-71
2022/04/15 09:51:47;;;;;;;7.93;5.10;;;15.60;74.40;;;;;;4938931;29;20051;-71
2022/04/15 09:54:24;;;;;;;10.63;5.15;;;15.70;72.90;;;;;;4950128;29;20053;-71
2022/04/15 09:56:57;;;;;;;10.02;5.07;;;15.70;72.30;;;;;;4947309;29;20051;-70
2022/04/15 09:59:27;;;;;;;8.73;4.50;;;15.70;72.40;;;;;;4927254;29;20051;-71
2022/04/15 10:02:03;;;;;;;8.35;4.55;;;15.60;71.60;;;;;;4947124;29;20059;-72
2022/04/15 10:04:33;;;;;;;7.45;4.63;;;15.60;71.30;;;;;;4951719;28;20047;-71
2022/04/15 10:07:06;;;;;;;8.02;4.85;;;15.50;71.70;;;;;;4918559;29;20047;-72
2022/04/15 10:09:42;;;;;;;8.23;4.53;;;15.60;72.00;;;;;;4935109;29;20054;-74
2022/04/15 10:12:10;;;;;;;9.02;4.55;;;15.70;71.80;;;;;;4935135;29;20292;-72
2022/04/15 10:14:38;;;;;;;9.60;4.60;;;15.80;71.70;;;;;;4935961;29;20485;-72
2022/04/15 10:17:06;;;;;;;8.00;4.18;;;15.80;71.20;;;;;;4953974;29;20051;-72
2022/04/15 10:19:35;;;;;;;6.47;4.25;;;15.90;71.60;;;;;;4955799;29;20393;-71
2022/04/15 10:22:03;;;;;;;11.40;4.00;;;16.10;71.30;;;;;;4948170;29;20051;-71
2022/04/15 10:24:31;;;;;;;9.40;3.90;;;16.20;70.40;;;;;;4896851;29;20051;-71
2022/04/15 10:27:00;;;;;;;7.32;3.95;;;16.30;68.90;;;;;;4943903;29;20062;-71
2022/04/15 10:29:27;;;;;;;9.80;4.03;;;16.20;68.80;;;;;;4952823;29;20054;-72
2022/04/15 10:31:56;;;;;;;8.00;4.50;;;16.30;69.50;;;;;;4933106;29;20059;-72
2022/04/15 10:34:23;;;;;;;8.07;5.25;;;16.40;69.80;;;;;;4949432;28;20051;-72
2022/04/15 10:36:54;;;;;;;9.02;4.28;;;16.50;70.00;;;;;;4951952;28;20046;-72
2022/04/15 10:39:26;;;;;;;7.68;4.10;;;16.80;69.80;;;;;;4951695;29;20043;-72
2022/04/15 10:42:01;;;;;;;8.50;4.00;;;17.00;69.30;;;;;;4946421;29;20078;-72
2022/04/15 10:44:36;;;;;;;8.55;4.35;;;17.30;68.50;;;;;;4935227;29;20537;-72
2022/04/15 10:47:10;;;;;;;7.55;4.00;;;17.40;67.90;;;;;;4933108;29;20058;-73
2022/04/15 10:49:40;;;;;;;5.82;3.13;;;17.60;67.50;;;;;;4951879;28;20051;-72
2022/04/15 10:52:21;;;;;;;8.15;3.78;;;17.80;66.50;;;;;;4951915;28;20486;-72
2022/04/15 10:54:52;;;;;;;6.85;3.70;;;18.10;65.30;;;;;;4936247;29;20394;-72
2022/04/15 10:57:22;;;;;;;10.77;3.38;;;18.30;64.10;;;;;;4938183;29;20059;-71
2022/04/15 11:02:49;;;;;;;7.88;2.78;;;18.30;64.10;;;;;;4937815;29;20059;-72
2022/04/15 11:05:41;;;;;;;6.13;2.50;;;18.40;64.30;;;;;;4935464;29;20055;-72
2022/04/15 11:08:17;;;;;;;6.85;2.25;;;18.50;63.70;;;;;;4955584;28;20485;-72
2022/04/15 11:11:03;;;;;;;5.90;2.10;;;18.70;63.00;;;;;;4953694;29;20089;-72
2022/04/15 11:13:40;;;;;;;7.25;2.38;;;18.80;62.30;;;;;;4934684;29;20044;-72
2022/04/15 11:16:10;;;;;;;6.75;2.10;;;18.80;59.90;;;;;;4933111;29;20043;-72
2022/04/15 11:19:00;;;;;;;6.53;2.00;;;18.70;59.20;;;;;;4954004;29;20051;-74
2022/04/15 11:21:35;;;;;;;4.05;1.80;;;18.60;59.40;;;;;;4948468;28;20598;-72
2022/04/15 11:24:12;;;;;;;4.05;1.83;;;18.50;59.90;;;;;;4952109;28;20517;-72
2022/04/15 11:26:42;;;;;;;5.40;2.03;;;18.60;60.80;;;;;;4953532;28;20047;-71
2022/04/15 11:29:12;;;;;;;4.95;2.00;;;18.70;60.10;;;;;;4954995;28;20045;-72
2022/04/15 11:31:45;;;;;;;4.38;1.67;;;18.80;59.60;;;;;;4954315;29;20050;-72
2022/04/15 11:34:16;;;;;;;6.68;2.40;;;19.20;60.10;;;;;;4942383;28;20070;-72
2022/04/15 11:36:46;;;;;;;9.75;2.10;;;19.50;58.80;;;;;;4953501;28;20043;-71
2022/04/15 11:39:18;;;;;;;4.25;1.77;;;19.60;57.70;;;;;;4952943;28;20073;-72
2022/04/15 11:41:54;;;;;;;7.22;1.83;;;19.50;57.60;;;;;;4952846;28;20122;-72
2022/04/15 11:44:27;;;;;;;5.20;1.48;;;19.40;57.20;;;;;;4940995;29;20051;-72
2022/04/15 11:47:16;;;;;;;4.65;1.65;;;19.40;57.50;;;;;;4917242;29;20051;-72
2022/04/15 11:49:46;;;;;;;5.07;1.70;;;19.40;57.70;;;;;;4935282;29;20060;-72
2022/04/15 11:52:27;;;;;;;6.13;1.90;;;19.50;57.10;;;;;;4940614;29;20051;-72
2022/04/15 11:54:58;;;;;;;6.07;1.65;;;19.60;56.90;;;;;;4948755;28;20504;-72
2022/04/15 11:57:29;;;;;;;4.70;1.50;;;19.60;55.50;;;;;;4925966;29;20055;-71
2022/04/15 11:59:58;;;;;;;5.85;1.40;;;19.60;56.10;;;;;;4954508;28;20055;-72
2022/04/15 12:02:26;;;;;;;6.03;1.70;;;19.60;56.00;;;;;;4952832;29;20051;-72
2022/04/15 12:04:56;;;;;;;3.50;1.33;;;19.60;56.50;;;;;;4940786;28;20047;-72
2022/04/15 12:07:25;;;;;;;3.03;1.45;;;19.80;56.50;;;;;;4938015;29;20047;-72
2022/04/15 12:09:53;;;;;;;5.45;1.35;;;19.80;55.90;;;;;;4927737;29;20051;-72
2022/04/15 12:12:24;;;;;;;4.38;1.60;;;19.90;55.10;;;;;;4952536;29;20047;-72
2022/04/15 12:14:55;;;;;;;3.97;1.70;;;20.00;54.50;;;;;;4952270;29;20043;-73
2022/04/15 12:17:24;;;;;;;2.67;1.52;;;19.90;54.00;;;;;;4942171;29;20505;-72
2022/04/15 12:19:52;;;;;;;6.00;1.75;;;19.80;54.70;;;;;;4941508;29;20055;-72
2022/04/15 12:22:20;;;;;;;6.65;1.90;;;19.80;53.70;;;;;;4938991;29;20067;-72
2022/04/15 12:24:48;;;;;;;3.22;1.63;;;19.60;53.70;;;;;;4940811;29;20071;-72
2022/04/15 12:27:17;;;;;;;4.55;1.60;;;19.40;55.00;;;;;;4954900;29;20043;-71
2022/04/15 12:29:51;;;;;;;7.00;1.35;;;19.40;55.20;;;;;;4933491;29;20106;-71
2022/04/15 12:32:26;;;;;;;8.13;2.28;;;19.50;54.70;;;;;;4940123;29;20064;-71
2022/04/15 12:34:55;;;;;;;3.58;1.67;;;19.40;55.10;;;;;;4939938;28;20051;-74
2022/04/15 12:37:46;;;;;;;4.30;1.60;;;19.30;55.50;;;;;;4952316;28;20062;-73
2022/04/15 12:40:17;;;;;;;5.60;2.10;;;19.30;55.10;;;;;;4924846;29;20046;-73
2022/04/15 12:42:51;;;;;;;7.70;1.90;;;19.30;54.80;;;;;;4923377;29;20040;-72
2022/04/15 12:45:21;;;;;;;7.00;2.20;;;19.20;55.00;;;;;;4938875;29;20043;-72
2022/04/15 12:47:59;;;;;;;3.92;1.80;;;19.10;55.30;;;;;;4929087;29;20058;-72
2022/04/15 12:50:31;;;;;;;7.88;2.08;;;19.10;56.10;;;;;;4935546;29;20379;-71
2022/04/15 12:53:00;;;;;;;6.00;1.77;;;19.20;56.70;;;;;;4935512;29;20512;-72
2022/04/15 12:55:36;;;;;;;4.22;1.85;;;19.60;56.50;;;;;;4946579;29;20043;-81
2022/04/15 12:58:29;;;;;;;5.93;1.90;;;19.90;55.20;;;;;;4946919;29;20055;-77